createdAt,value
2023-02-20T00:01:54.293Z,4.48
2023-02-20T00:05:07.264Z,4.40
2023-02-20T00:08:19.665Z,4.37
2023-02-20T00:11:32.255Z,4.37
2023-02-20T00:14:44.919Z,4.36
2023-02-20T00:17:57.554Z,4.29
2023-02-20T00:21:09.954Z,4.27
2023-02-20T00:24:22.665Z,4.11
2023-02-20T00:27:35.001Z,4.03
2023-02-20T00:30:47.649Z,3.97
2023-02-20T00:33:59.995Z,3.93
2023-02-20T00:37:12.805Z,3.98
2023-02-20T00:40:25.388Z,4.01
2023-02-20T00:43:38.965Z,3.95
2023-02-20T00:46:51.329Z,3.95
2023-02-20T00:50:05.035Z,3.90
2023-02-20T00:53:17.364Z,3.74
2023-02-20T00:56:31.069Z,3.69
2023-02-20T00:59:43.448Z,3.62
2023-02-20T01:02:56.443Z,3.55
2023-02-20T01:06:08.901Z,3.57
2023-02-20T01:09:21.603Z,3.53
2023-02-20T01:12:34.036Z,3.55
2023-02-20T01:15:46.763Z,3.58
2023-02-20T01:18:59.081Z,3.45
2023-02-20T01:22:11.934Z,3.50
2023-02-20T01:25:24.316Z,3.46
2023-02-20T01:28:36.938Z,3.34
2023-02-20T01:31:50.218Z,3.38
2023-02-20T01:35:02.961Z,3.32
2023-02-20T01:38:15.293Z,3.37
2023-02-20T01:41:29.094Z,3.37
2023-02-20T01:44:42.367Z,3.30
2023-02-20T01:47:56.914Z,3.31
2023-02-20T01:51:09.283Z,3.21
2023-02-20T01:54:23.313Z,3.15
2023-02-20T01:57:36.197Z,3.01
2023-02-20T02:00:48.860Z,2.96
2023-02-20T02:04:04.694Z,2.99
2023-02-20T02:07:17.244Z,2.98
2023-02-20T02:10:55.377Z,2.99
2023-02-20T02:14:07.786Z,2.95
2023-02-20T02:17:30.334Z,2.89
2023-02-20T02:21:07.630Z,2.90
2023-02-20T02:24:57.934Z,2.75
2023-02-20T02:28:47.664Z,2.70
2023-02-20T02:32:25.179Z,2.58
2023-02-20T02:35:58.952Z,2.44
2023-02-20T02:39:46.209Z,2.39
2023-02-20T02:43:05.856Z,2.36
2023-02-20T02:46:24.875Z,2.26
2023-02-20T02:50:02.020Z,2.19
2023-02-20T02:53:14.736Z,2.10
2023-02-20T02:56:34.488Z,2.04
2023-02-20T02:59:48.055Z,1.91
2023-02-20T03:03:03.537Z,1.82
2023-02-20T03:06:24.655Z,1.81
2023-02-20T03:09:39.666Z,1.88
2023-02-20T03:12:53.243Z,1.72
2023-02-20T03:16:05.815Z,1.67
2023-02-20T03:19:24.802Z,1.72
2023-02-20T03:22:48.075Z,1.69
2023-02-20T03:26:06.603Z,1.75
2023-02-20T03:29:27.975Z,1.55
2023-02-20T03:32:59.212Z,1.47
2023-02-20T03:36:32.378Z,1.45
2023-02-20T03:40:06.717Z,1.58
2023-02-20T03:43:26.002Z,1.37
2023-02-20T03:46:39.330Z,1.31
2023-02-20T03:49:51.757Z,1.33
2023-02-20T03:53:04.727Z,1.23
2023-02-20T03:56:26.611Z,1.24
2023-02-20T03:59:41.356Z,1.23
2023-02-20T04:02:54.811Z,1.28
2023-02-20T04:06:08.934Z,1.36
2023-02-20T04:09:27.089Z,1.29
2023-02-20T04:12:41.531Z,1.35
2023-02-20T04:15:56.136Z,1.32
2023-02-20T04:19:08.874Z,1.28
2023-02-20T04:22:25.046Z,1.35
2023-02-20T04:25:46.826Z,1.48
2023-02-20T04:28:59.657Z,1.43
2023-02-20T04:32:12.655Z,1.42
2023-02-20T04:35:25.401Z,1.41
2023-02-20T04:38:38.792Z,1.30
2023-02-20T04:41:51.834Z,1.35
2023-02-20T04:45:05.010Z,1.36
2023-02-20T04:48:17.488Z,1.46
2023-02-20T04:51:32.889Z,1.41
2023-02-20T04:54:46.351Z,1.43
2023-02-20T04:57:59.108Z,1.45
2023-02-20T05:01:12.113Z,1.44
2023-02-20T05:04:24.781Z,1.64
2023-02-20T05:07:37.136Z,1.65
2023-02-20T05:10:49.832Z,1.64
2023-02-20T05:14:02.941Z,1.63
2023-02-20T05:17:15.572Z,1.63
2023-02-20T05:20:54.123Z,1.64
2023-02-20T05:24:09.536Z,1.64
2023-02-20T05:27:22.644Z,1.71
2023-02-20T05:30:35.414Z,1.79
2023-02-20T05:33:47.988Z,1.81
2023-02-20T05:37:00.600Z,1.97
2023-02-20T05:40:12.942Z,1.92
2023-02-20T05:43:25.721Z,2.19
2023-02-20T05:46:41.809Z,1.99
2023-02-20T05:49:54.471Z,2.15
2023-02-20T05:53:06.975Z,2.19
2023-02-20T05:56:19.999Z,2.14
2023-02-20T05:59:32.543Z,2.17
2023-02-20T06:02:45.111Z,2.23
2023-02-20T06:05:57.776Z,2.19
2023-02-20T06:09:13.192Z,2.34
2023-02-20T06:12:25.888Z,2.32
2023-02-20T06:15:38.333Z,2.50
2023-02-20T06:18:51.179Z,2.43
2023-02-20T06:22:03.539Z,2.62
2023-02-20T06:25:16.537Z,2.65
2023-02-20T06:28:28.870Z,2.64
2023-02-20T06:31:41.616Z,2.66
2023-02-20T06:34:54.519Z,2.83
2023-02-20T06:38:08.561Z,3.01
2023-02-20T06:41:20.931Z,3.12
2023-02-20T06:44:35.907Z,3.12
2023-02-20T06:47:48.327Z,3.07
2023-02-20T06:51:01.065Z,3.33
2023-02-20T06:54:13.537Z,3.36
2023-02-20T06:57:26.519Z,3.37
2023-02-20T07:00:42.230Z,3.65
2023-02-20T07:03:55.338Z,3.68
2023-02-20T07:07:07.838Z,3.53
2023-02-20T07:10:20.605Z,3.66
2023-02-20T07:13:32.977Z,3.58
2023-02-20T07:16:45.584Z,3.65
2023-02-20T07:19:59.401Z,3.73
2023-02-20T07:23:12.065Z,3.81
2023-02-20T07:26:26.337Z,4.00
2023-02-20T07:29:41.368Z,3.83
2023-02-20T07:32:53.682Z,3.72
2023-02-20T07:36:06.909Z,3.78
2023-02-20T07:39:20.162Z,3.81
2023-02-20T07:42:32.927Z,3.87
2023-02-20T07:45:45.478Z,4.01
2023-02-20T07:48:58.193Z,4.02
2023-02-20T07:52:10.524Z,4.10
2023-02-20T07:55:23.255Z,4.33
2023-02-20T07:58:35.567Z,4.38
2023-02-20T08:01:48.246Z,4.24
2023-02-20T08:05:00.987Z,4.50
2023-02-20T08:08:13.412Z,4.81
2023-02-20T08:11:26.063Z,4.73
2023-02-20T08:14:38.436Z,4.61
2023-02-20T08:17:52.396Z,4.63
2023-02-20T08:21:07.511Z,4.62
2023-02-20T08:24:20.189Z,4.92
2023-02-20T08:27:32.958Z,5.18
2023-02-20T08:30:45.847Z,5.33
2023-02-20T08:33:58.262Z,5.18
2023-02-20T08:37:10.920Z,5.68
2023-02-20T08:40:23.295Z,5.60
2023-02-20T08:43:36.240Z,5.63
2023-02-20T08:46:49.988Z,5.78
2023-02-20T08:50:02.720Z,5.96
2023-02-20T08:53:15.290Z,5.96
2023-02-20T08:56:28.106Z,6.09
2023-02-20T08:59:41.037Z,6.09
2023-02-20T09:02:53.711Z,6.10
2023-02-20T09:06:06.296Z,6.20
2023-02-20T09:09:18.963Z,6.17
2023-02-20T09:12:32.521Z,6.07
2023-02-20T09:15:45.223Z,6.06
2023-02-20T09:18:57.744Z,6.17
2023-02-20T09:22:10.444Z,6.42
2023-02-20T09:25:22.863Z,6.94
2023-02-20T09:28:35.579Z,7.04
2023-02-20T09:31:47.948Z,6.94
2023-02-20T09:35:00.682Z,7.08
2023-02-20T09:38:13.042Z,7.26
2023-02-20T09:41:28.008Z,7.10
2023-02-20T09:44:52.527Z,6.99
2023-02-20T09:48:14.390Z,7.33
2023-02-20T09:51:29.131Z,6.96
2023-02-20T09:54:56.042Z,6.82
2023-02-20T09:58:17.156Z,6.98
2023-02-20T10:01:30.014Z,6.78
2023-02-20T10:04:59.995Z,6.91
2023-02-20T10:08:18.137Z,6.75
2023-02-20T10:11:36.692Z,6.87
2023-02-20T10:15:06.955Z,6.97
2023-02-20T10:18:28.476Z,7.01
2023-02-20T10:22:01.764Z,7.40
2023-02-20T10:25:29.705Z,7.40
2023-02-20T10:28:42.153Z,7.71
2023-02-20T10:32:02.166Z,8.03
2023-02-20T10:35:21.118Z,8.07
2023-02-20T10:38:58.443Z,8.00
2023-02-20T10:42:15.744Z,7.93
2023-02-20T10:45:43.688Z,7.76
2023-02-20T10:48:57.182Z,7.74
2023-02-20T10:52:29.565Z,8.03
2023-02-20T10:56:07.088Z,8.28
2023-02-20T10:59:23.894Z,8.29
2023-02-20T11:02:57.888Z,8.22
2023-02-20T11:06:12.846Z,8.08
2023-02-20T11:09:25.638Z,8.40
2023-02-20T11:12:56.289Z,8.69
2023-02-20T11:16:09.665Z,8.83
2023-02-20T11:19:26.407Z,9.08
2023-02-20T11:22:43.103Z,9.46
2023-02-20T11:25:55.734Z,9.50
2023-02-20T11:29:12.665Z,9.89
2023-02-20T11:32:29.337Z,10.03
2023-02-20T11:35:42.569Z,10.07
2023-02-20T11:38:59.695Z,10.26
2023-02-20T11:42:19.728Z,10.20
2023-02-20T11:45:32.377Z,10.42
2023-02-20T11:49:07.911Z,10.02
2023-02-20T11:52:24.491Z,10.20
2023-02-20T11:55:37.005Z,10.03
2023-02-20T11:58:49.666Z,10.25
2023-02-20T12:02:21.466Z,10.16
2023-02-20T12:05:38.966Z,10.01
2023-02-20T12:08:55.240Z,9.96
2023-02-20T12:12:07.981Z,10.12
2023-02-20T12:15:22.590Z,10.03
2023-02-20T12:18:50.565Z,9.84
2023-02-20T12:22:02.873Z,9.92
2023-02-20T12:26:07.872Z,10.22
2023-02-20T12:29:48.012Z,10.21
2023-02-20T12:33:18.446Z,10.22
2023-02-20T12:36:45.886Z,10.47
2023-02-20T12:40:01.169Z,10.66
2023-02-20T12:43:28.596Z,10.75
2023-02-20T12:47:03.209Z,10.94
2023-02-20T12:50:21.200Z,11.07
2023-02-20T12:53:43.644Z,11.40
2023-02-20T12:57:02.324Z,11.63
2023-02-20T13:00:30.039Z,11.68
2023-02-20T13:04:04.425Z,12.21
2023-02-20T13:07:31.446Z,12.21
2023-02-20T13:10:57.593Z,12.24
2023-02-20T13:14:13.110Z,12.16
2023-02-20T13:17:43.487Z,12.59
2023-02-20T13:21:15.398Z,12.58
2023-02-20T13:24:29.333Z,12.40
2023-02-20T13:27:42.005Z,12.31
2023-02-20T13:31:23.396Z,12.05
2023-02-20T13:34:37.551Z,11.97
2023-02-20T13:37:54.157Z,12.17
2023-02-20T13:41:09.340Z,12.03
2023-02-20T13:44:36.622Z,11.90
2023-02-20T13:47:49.120Z,12.39
2023-02-20T13:51:16.419Z,12.38
2023-02-20T13:54:28.940Z,12.32
2023-02-20T13:57:54.724Z,12.38
2023-02-20T14:01:09.131Z,12.04
2023-02-20T14:04:22.069Z,12.36
2023-02-20T14:07:39.576Z,12.07
2023-02-20T14:10:52.279Z,12.14
2023-02-20T14:14:09.811Z,12.22
2023-02-20T14:17:22.479Z,12.41
2023-02-20T14:20:37.869Z,12.30
2023-02-20T14:23:51.140Z,12.20
2023-02-20T14:27:23.543Z,12.00
2023-02-20T14:30:36.220Z,12.12
2023-02-20T14:33:49.662Z,12.20
2023-02-20T14:37:18.241Z,12.00
2023-02-20T14:40:41.768Z,11.94
2023-02-20T14:44:01.227Z,11.82
2023-02-20T14:47:14.450Z,11.76
2023-02-20T14:50:28.167Z,11.73
2023-02-20T14:53:41.155Z,11.88
2023-02-20T14:56:54.284Z,11.76
2023-02-20T15:00:11.426Z,11.72
2023-02-20T15:03:30.926Z,11.62
2023-02-20T15:06:45.867Z,11.51
2023-02-20T15:10:00.269Z,11.49
2023-02-20T15:13:18.359Z,11.52
2023-02-20T15:16:32.048Z,11.49
2023-02-20T15:19:44.382Z,11.29
2023-02-20T15:23:15.889Z,11.38
2023-02-20T15:26:29.269Z,11.29
2023-02-20T15:29:44.254Z,11.24
2023-02-20T15:32:57.366Z,11.36
2023-02-20T15:36:13.371Z,11.28
2023-02-20T15:39:29.045Z,11.13
2023-02-20T15:42:41.886Z,11.14
2023-02-20T15:45:54.358Z,10.99
2023-02-20T15:49:07.297Z,10.93
2023-02-20T15:52:19.766Z,10.93
2023-02-20T15:55:33.674Z,10.74
2023-02-20T15:58:46.042Z,10.71
2023-02-20T16:01:58.769Z,10.67
2023-02-20T16:05:11.488Z,10.54
2023-02-20T16:08:24.088Z,10.53
2023-02-20T16:11:44.111Z,10.39
2023-02-20T16:14:56.489Z,10.25
2023-02-20T16:18:09.799Z,10.29
2023-02-20T16:21:22.840Z,10.15
2023-02-20T16:24:36.463Z,10.13
2023-02-20T16:27:52.660Z,10.05
2023-02-20T16:31:05.507Z,10.00
2023-02-20T16:34:22.034Z,9.99
2023-02-20T16:37:35.657Z,9.99
2023-02-20T16:40:51.129Z,9.86
2023-02-20T16:44:07.051Z,9.77
2023-02-20T16:47:20.346Z,9.76
2023-02-20T16:50:34.358Z,9.71
2023-02-20T16:53:46.817Z,9.78
2023-02-20T16:56:59.438Z,9.71
2023-02-20T17:00:16.389Z,9.53
2023-02-20T17:03:28.907Z,9.53
2023-02-20T17:06:41.256Z,9.46
2023-02-20T17:09:53.907Z,9.43
2023-02-20T17:13:06.301Z,9.41
2023-02-20T17:16:30.845Z,9.39
2023-02-20T17:19:44.017Z,9.34
2023-02-20T17:23:04.619Z,9.38
2023-02-20T17:26:17.620Z,9.42
2023-02-20T17:29:30.277Z,9.45
2023-02-20T17:32:42.633Z,9.49
2023-02-20T17:35:55.369Z,9.47
2023-02-20T17:39:07.734Z,9.45
2023-02-20T17:42:20.368Z,9.36
2023-02-20T17:45:32.871Z,9.31
2023-02-20T17:48:45.592Z,9.32
2023-02-20T17:52:00.967Z,9.32
2023-02-20T17:55:18.272Z,9.33
2023-02-20T17:58:30.612Z,9.29
2023-02-20T18:01:43.948Z,9.21
2023-02-20T18:04:56.591Z,9.13
2023-02-20T18:08:08.957Z,9.21
2023-02-20T18:11:21.651Z,9.15
2023-02-20T18:14:34.051Z,9.04
2023-02-20T18:17:46.692Z,9.02
2023-02-20T18:20:59.482Z,9.15
2023-02-20T18:24:12.116Z,9.05
2023-02-20T18:27:25.303Z,9.08
2023-02-20T18:30:38.147Z,9.18
2023-02-20T18:33:50.576Z,8.99
2023-02-20T18:37:03.229Z,8.97
2023-02-20T18:40:16.184Z,8.91
2023-02-20T18:43:28.808Z,8.96
2023-02-20T18:46:41.164Z,8.97
2023-02-20T18:49:53.786Z,9.11
2023-02-20T18:53:06.089Z,9.15
2023-02-20T18:56:18.708Z,9.08
2023-02-20T18:59:31.192Z,9.11
2023-02-20T19:02:43.884Z,9.15
2023-02-20T19:05:56.308Z,9.15
2023-02-20T19:09:08.957Z,9.03
2023-02-20T19:12:21.269Z,9.03
2023-02-20T19:15:33.876Z,8.97
2023-02-20T19:18:50.893Z,8.93
2023-02-20T19:22:04.012Z,8.90
2023-02-20T19:25:17.731Z,8.96
2023-02-20T19:28:30.429Z,9.12
2023-02-20T19:31:42.831Z,9.16
2023-02-20T19:34:55.514Z,9.15
2023-02-20T19:38:07.870Z,9.22
2023-02-20T19:41:22.561Z,9.17
2023-02-20T19:44:35.330Z,9.19
2023-02-20T19:47:47.941Z,9.02
2023-02-20T19:51:00.269Z,8.99
2023-02-20T19:54:12.846Z,8.95
2023-02-20T19:57:25.498Z,8.89
2023-02-20T20:00:38.121Z,8.80
2023-02-20T20:03:50.756Z,8.78
2023-02-20T20:07:03.127Z,8.83
2023-02-20T20:10:15.766Z,8.78
2023-02-20T20:13:28.212Z,8.76
2023-02-20T20:16:42.953Z,8.68
2023-02-20T20:19:59.532Z,8.72
2023-02-20T20:23:12.980Z,8.70
2023-02-20T20:26:30.580Z,8.58
2023-02-20T20:29:44.677Z,8.51
2023-02-20T20:32:57.264Z,8.41
2023-02-20T20:36:10.112Z,8.41
2023-02-20T20:39:22.453Z,8.40
2023-02-20T20:42:35.240Z,8.40
2023-02-20T20:45:47.604Z,8.28
2023-02-20T20:49:00.275Z,8.28
2023-02-20T20:52:12.601Z,8.13
2023-02-20T20:55:25.253Z,8.01
2023-02-20T20:58:37.557Z,7.96
2023-02-20T21:01:50.257Z,7.92
2023-02-20T21:05:11.261Z,7.89
2023-02-20T21:08:24.028Z,7.79
2023-02-20T21:11:36.383Z,7.83
2023-02-20T21:14:48.996Z,7.80
2023-02-20T21:18:01.589Z,7.66
2023-02-20T21:21:14.461Z,7.63
2023-02-20T21:24:26.991Z,7.67
2023-02-20T21:27:39.608Z,7.56
2023-02-20T21:30:51.967Z,7.58
2023-02-20T21:34:04.684Z,7.49
2023-02-20T21:37:18.016Z,7.49
2023-02-20T21:40:30.827Z,7.44
2023-02-20T21:44:01.924Z,7.25
2023-02-20T21:47:15.148Z,7.31
2023-02-20T21:50:27.653Z,7.19
2023-02-20T21:53:40.246Z,7.10
2023-02-20T21:56:52.688Z,7.03
2023-02-20T22:00:06.321Z,6.90
2023-02-20T22:03:18.472Z,6.77
2023-02-20T22:06:31.076Z,6.73
2023-02-20T22:10:02.088Z,6.70
2023-02-20T22:13:33.292Z,6.72
2023-02-20T22:17:04.505Z,6.68
2023-02-20T22:20:35.892Z,6.69
2023-02-20T22:24:06.929Z,6.69
2023-02-20T22:27:38.054Z,6.66
2023-02-20T22:31:09.403Z,6.79
2023-02-20T22:34:40.871Z,6.65
2023-02-20T22:38:11.811Z,6.53
2023-02-20T22:41:43.282Z,6.53
2023-02-20T22:45:14.270Z,6.51
2023-02-20T22:48:45.877Z,6.40
2023-02-20T22:52:16.724Z,6.41
2023-02-20T22:55:48.137Z,6.50
2023-02-20T22:59:19.143Z,6.59
2023-02-20T23:02:51.063Z,6.70
2023-02-20T23:06:22.164Z,6.66
2023-02-20T23:09:53.431Z,6.64
2023-02-20T23:13:24.364Z,6.69
2023-02-20T23:16:55.696Z,6.68
2023-02-20T23:20:30.204Z,6.56
2023-02-20T23:24:01.507Z,6.69
2023-02-20T23:27:32.716Z,6.71
2023-02-20T23:31:04.384Z,6.74
2023-02-20T23:34:35.603Z,6.73
2023-02-20T23:38:09.031Z,6.73
2023-02-20T23:41:39.960Z,6.77
2023-02-20T23:45:11.273Z,6.71
2023-02-20T23:48:42.218Z,6.64
2023-02-20T23:52:16.661Z,6.59
2023-02-20T23:55:47.889Z,6.63
2023-02-20T23:59:18.924Z,6.65
